sensor_id;sensor_type;location;lat;lon;timestamp;P1;durP1;ratioP1;P2;durP2;ratioP2
71963;SDS011;59834;52.124;5.422;2023-06-19T00:01:01;8.30;;;5.20;;
71963;SDS011;59834;52.124;5.422;2023-06-19T00:03:27;7.13;;;5.05;;
71963;SDS011;59834;52.124;5.422;2023-06-19T00:05:54;5.90;;;5.20;;
71963;SDS011;59834;52.124;5.422;2023-06-19T00:08:20;8.40;;;4.93;;
71963;SDS011;59834;52.124;5.422;2023-06-19T00:10:48;7.32;;;5.38;;
71963;SDS011;59834;52.124;5.422;2023-06-19T00:13:14;6.03;;;5.43;;
71963;SDS011;59834;52.124;5.422;2023-06-19T00:15:41;8.55;;;5.47;;
71963;SDS011;59834;52.124;5.422;2023-06-19T00:18:07;6.28;;;5.68;;
71963;SDS011;59834;52.124;5.422;2023-06-19T00:20:34;7.18;;;5.63;;
71963;SDS011;59834;52.124;5.422;2023-06-19T00:23:02;8.07;;;5.10;;
71963;SDS011;59834;52.124;5.422;2023-06-19T00:25:28;5.97;;;5.10;;
71963;SDS011;59834;52.124;5.422;2023-06-19T00:27:55;6.72;;;5.28;;
71963;SDS011;59834;52.124;5.422;2023-06-19T00:30:21;5.72;;;5.13;;
71963;SDS011;59834;52.124;5.422;2023-06-19T00:32:48;9.77;;;5.28;;
71963;SDS011;59834;52.124;5.422;2023-06-19T00:35:16;10.10;;;5.95;;
71963;SDS011;59834;52.124;5.422;2023-06-19T00:37:44;9.03;;;5.73;;
71963;SDS011;59834;52.124;5.422;2023-06-19T00:40:27;6.32;;;5.50;;
71963;SDS011;59834;52.124;5.422;2023-06-19T00:42:55;6.65;;;5.43;;
71963;SDS011;59834;52.124;5.422;2023-06-19T00:45:22;6.07;;;5.47;;
71963;SDS011;59834;52.124;5.422;2023-06-19T00:47:51;10.07;;;4.82;;
71963;SDS011;59834;52.124;5.422;2023-06-19T00:50:19;6.60;;;5.20;;
71963;SDS011;59834;52.124;5.422;2023-06-19T00:52:47;8.02;;;4.90;;
71963;SDS011;59834;52.124;5.422;2023-06-19T00:55:14;6.03;;;4.80;;
71963;SDS011;59834;52.124;5.422;2023-06-19T00:57:42;8.73;;;5.68;;
71963;SDS011;59834;52.124;5.422;2023-06-19T01:00:10;4.82;;;4.10;;
71963;SDS011;59834;52.124;5.422;2023-06-19T01:02:38;4.63;;;4.10;;
71963;SDS011;59834;52.124;5.422;2023-06-19T01:05:05;5.38;;;3.83;;
71963;SDS011;59834;52.124;5.422;2023-06-19T01:10:29;4.97;;;3.22;;
71963;SDS011;59834;52.124;5.422;2023-06-19T01:13:04;3.55;;;2.60;;
71963;SDS011;59834;52.124;5.422;2023-06-19T01:15:36;4.23;;;2.93;;
71963;SDS011;59834;52.124;5.422;2023-06-19T01:18:06;4.80;;;2.55;;
71963;SDS011;59834;52.124;5.422;2023-06-19T01:20:33;3.20;;;2.20;;
71963;SDS011;59834;52.124;5.422;2023-06-19T01:23:07;8.43;;;1.70;;
71963;SDS011;59834;52.124;5.422;2023-06-19T01:25:34;4.13;;;2.33;;
71963;SDS011;59834;52.124;5.422;2023-06-19T01:28:05;2.50;;;1.57;;
71963;SDS011;59834;52.124;5.422;2023-06-19T01:30:36;2.92;;;1.65;;
71963;SDS011;59834;52.124;5.422;2023-06-19T01:33:18;2.03;;;1.27;;
71963;SDS011;59834;52.124;5.422;2023-06-19T01:35:49;2.45;;;1.38;;
71963;SDS011;59834;52.124;5.422;2023-06-19T01:38:17;5.03;;;1.30;;
71963;SDS011;59834;52.124;5.422;2023-06-19T01:40:47;2.57;;;1.40;;
71963;SDS011;59834;52.124;5.422;2023-06-19T01:43:15;2.83;;;1.35;;
71963;SDS011;59834;52.124;5.422;2023-06-19T01:45:42;1.65;;;1.02;;
71963;SDS011;59834;52.124;5.422;2023-06-19T01:48:08;2.85;;;1.20;;
71963;SDS011;59834;52.124;5.422;2023-06-19T01:50:35;1.63;;;0.70;;
71963;SDS011;59834;52.124;5.422;2023-06-19T01:53:02;7.40;;;1.27;;
71963;SDS011;59834;52.124;5.422;2023-06-19T01:55:28;2.15;;;0.80;;
71963;SDS011;59834;52.124;5.422;2023-06-19T01:57:55;2.30;;;0.77;;
71963;SDS011;59834;52.124;5.422;2023-06-19T02:00:22;2.05;;;0.80;;
71963;SDS011;59834;52.124;5.422;2023-06-19T02:02:49;2.00;;;0.60;;
71963;SDS011;59834;52.124;5.422;2023-06-19T02:05:15;1.97;;;0.90;;
71963;SDS011;59834;52.124;5.422;2023-06-19T02:07:42;2.42;;;0.85;;
71963;SDS011;59834;52.124;5.422;2023-06-19T02:10:09;2.50;;;0.93;;
71963;SDS011;59834;52.124;5.422;2023-06-19T02:12:35;4.15;;;1.00;;
71963;SDS011;59834;52.124;5.422;2023-06-19T02:15:02;1.85;;;0.70;;
71963;SDS011;59834;52.124;5.422;2023-06-19T02:17:29;3.57;;;0.80;;
71963;SDS011;59834;52.124;5.422;2023-06-19T02:19:56;3.85;;;0.70;;
71963;SDS011;59834;52.124;5.422;2023-06-19T02:22:23;1.65;;;0.85;;
71963;SDS011;59834;52.124;5.422;2023-06-19T02:24:49;3.47;;;0.68;;
71963;SDS011;59834;52.124;5.422;2023-06-19T02:27:16;1.65;;;0.80;;
71963;SDS011;59834;52.124;5.422;2023-06-19T02:29:42;2.40;;;0.80;;
71963;SDS011;59834;52.124;5.422;2023-06-19T02:32:09;1.50;;;0.73;;
71963;SDS011;59834;52.124;5.422;2023-06-19T02:34:36;2.25;;;0.90;;
71963;SDS011;59834;52.124;5.422;2023-06-19T02:37:02;4.10;;;0.90;;
71963;SDS011;59834;52.124;5.422;2023-06-19T02:39:29;2.58;;;1.00;;
71963;SDS011;59834;52.124;5.422;2023-06-19T02:41:55;1.43;;;0.70;;
71963;SDS011;59834;52.124;5.422;2023-06-19T02:44:22;2.70;;;0.88;;
71963;SDS011;59834;52.124;5.422;2023-06-19T02:46:48;3.97;;;1.52;;
71963;SDS011;59834;52.124;5.422;2023-06-19T02:49:15;1.85;;;0.88;;
71963;SDS011;59834;52.124;5.422;2023-06-19T02:51:41;2.20;;;1.08;;
71963;SDS011;59834;52.124;5.422;2023-06-19T02:54:08;3.73;;;1.20;;
71963;SDS011;59834;52.124;5.422;2023-06-19T02:56:34;4.30;;;0.93;;
71963;SDS011;59834;52.124;5.422;2023-06-19T02:59:01;2.88;;;1.20;;
71963;SDS011;59834;52.124;5.422;2023-06-19T03:01:27;2.88;;;1.13;;
71963;SDS011;59834;52.124;5.422;2023-06-19T03:03:55;3.20;;;1.02;;
71963;SDS011;59834;52.124;5.422;2023-06-19T03:06:21;1.70;;;1.13;;
71963;SDS011;59834;52.124;5.422;2023-06-19T03:08:48;2.58;;;1.30;;
71963;SDS011;59834;52.124;5.422;2023-06-19T03:11:14;3.42;;;1.20;;
71963;SDS011;59834;52.124;5.422;2023-06-19T03:13:45;3.08;;;1.92;;
71963;SDS011;59834;52.124;5.422;2023-06-19T03:16:13;3.22;;;1.10;;
71963;SDS011;59834;52.124;5.422;2023-06-19T03:18:41;2.93;;;1.83;;
71963;SDS011;59834;52.124;5.422;2023-06-19T03:21:08;2.13;;;1.33;;
71963;SDS011;59834;52.124;5.422;2023-06-19T03:23:35;2.58;;;1.33;;
71963;SDS011;59834;52.124;5.422;2023-06-19T03:26:01;4.13;;;2.10;;
71963;SDS011;59834;52.124;5.422;2023-06-19T03:28:28;4.10;;;1.90;;
71963;SDS011;59834;52.124;5.422;2023-06-19T03:30:55;4.57;;;2.20;;
71963;SDS011;59834;52.124;5.422;2023-06-19T03:33:21;3.83;;;1.75;;
71963;SDS011;59834;52.124;5.422;2023-06-19T03:35:48;2.38;;;1.50;;
71963;SDS011;59834;52.124;5.422;2023-06-19T03:38:14;4.72;;;1.85;;
71963;SDS011;59834;52.124;5.422;2023-06-19T03:40:41;2.80;;;2.03;;
71963;SDS011;59834;52.124;5.422;2023-06-19T03:43:08;2.40;;;1.13;;
71963;SDS011;59834;52.124;5.422;2023-06-19T03:45:34;4.97;;;2.60;;
71963;SDS011;59834;52.124;5.422;2023-06-19T03:48:01;5.82;;;2.13;;
71963;SDS011;59834;52.124;5.422;2023-06-19T03:50:27;4.82;;;2.10;;
71963;SDS011;59834;52.124;5.422;2023-06-19T03:52:54;5.22;;;2.45;;
71963;SDS011;59834;52.124;5.422;2023-06-19T03:55:21;4.53;;;1.70;;
71963;SDS011;59834;52.124;5.422;2023-06-19T03:57:47;4.20;;;2.28;;
71963;SDS011;59834;52.124;5.422;2023-06-19T04:00:14;4.60;;;2.65;;
71963;SDS011;59834;52.124;5.422;2023-06-19T04:02:42;7.00;;;3.28;;
71963;SDS011;59834;52.124;5.422;2023-06-19T04:05:08;5.35;;;3.80;;
71963;SDS011;59834;52.124;5.422;2023-06-19T04:07:35;5.47;;;4.30;;
71963;SDS011;59834;52.124;5.422;2023-06-19T04:10:03;4.85;;;4.22;;
71963;SDS011;59834;52.124;5.422;2023-06-19T04:12:30;6.43;;;4.10;;
71963;SDS011;59834;52.124;5.422;2023-06-19T04:14:56;5.55;;;4.40;;
71963;SDS011;59834;52.124;5.422;2023-06-19T04:17:23;6.53;;;5.50;;
71963;SDS011;59834;52.124;5.422;2023-06-19T04:19:49;9.93;;;4.67;;
71963;SDS011;59834;52.124;5.422;2023-06-19T04:22:16;6.45;;;4.88;;
71963;SDS011;59834;52.124;5.422;2023-06-19T04:24:42;6.35;;;4.75;;
71963;SDS011;59834;52.124;5.422;2023-06-19T04:27:09;6.50;;;5.80;;
71963;SDS011;59834;52.124;5.422;2023-06-19T04:29:36;7.60;;;6.82;;
71963;SDS011;59834;52.124;5.422;2023-06-19T04:32:03;9.40;;;6.87;;
71963;SDS011;59834;52.124;5.422;2023-06-19T04:34:40;8.77;;;7.38;;
71963;SDS011;59834;52.124;5.422;2023-06-19T04:37:12;8.20;;;7.40;;
71963;SDS011;59834;52.124;5.422;2023-06-19T04:39:39;9.30;;;6.82;;
71963;SDS011;59834;52.124;5.422;2023-06-19T04:42:05;9.60;;;7.40;;
71963;SDS011;59834;52.124;5.422;2023-06-19T04:44:32;11.63;;;6.90;;
71963;SDS011;59834;52.124;5.422;2023-06-19T04:46:59;7.50;;;6.75;;
71963;SDS011;59834;52.124;5.422;2023-06-19T04:49:29;7.28;;;6.57;;
71963;SDS011;59834;52.124;5.422;2023-06-19T04:51:57;9.98;;;7.45;;
71963;SDS011;59834;52.124;5.422;2023-06-19T04:54:24;6.68;;;6.07;;
71963;SDS011;59834;52.124;5.422;2023-06-19T04:56:52;6.33;;;4.83;;
71963;SDS011;59834;52.124;5.422;2023-06-19T04:59:19;7.05;;;4.07;;
71963;SDS011;59834;52.124;5.422;2023-06-19T05:01:47;4.35;;;2.47;;
71963;SDS011;59834;52.124;5.422;2023-06-19T05:04:14;2.20;;;1.70;;
71963;SDS011;59834;52.124;5.422;2023-06-19T05:06:40;2.55;;;1.63;;
71963;SDS011;59834;52.124;5.422;2023-06-19T05:09:09;2.58;;;1.83;;
71963;SDS011;59834;52.124;5.422;2023-06-19T05:11:35;2.77;;;1.20;;
71963;SDS011;59834;52.124;5.422;2023-06-19T05:14:02;2.10;;;1.10;;
71963;SDS011;59834;52.124;5.422;2023-06-19T05:16:29;2.00;;;1.40;;
71963;SDS011;59834;52.124;5.422;2023-06-19T05:18:56;2.22;;;1.70;;
71963;SDS011;59834;52.124;5.422;2023-06-19T05:21:22;3.83;;;2.28;;
71963;SDS011;59834;52.124;5.422;2023-06-19T05:23:49;4.83;;;3.40;;
71963;SDS011;59834;52.124;5.422;2023-06-19T05:26:17;3.00;;;2.70;;
71963;SDS011;59834;52.124;5.422;2023-06-19T05:28:43;4.68;;;2.75;;
71963;SDS011;59834;52.124;5.422;2023-06-19T05:31:10;3.22;;;2.78;;
71963;SDS011;59834;52.124;5.422;2023-06-19T05:33:36;4.63;;;2.45;;
71963;SDS011;59834;52.124;5.422;2023-06-19T05:36:03;4.90;;;2.63;;
71963;SDS011;59834;52.124;5.422;2023-06-19T05:38:30;3.17;;;1.70;;
71963;SDS011;59834;52.124;5.422;2023-06-19T05:40:57;3.28;;;2.40;;
71963;SDS011;59834;52.124;5.422;2023-06-19T05:43:24;2.90;;;1.98;;
71963;SDS011;59834;52.124;5.422;2023-06-19T05:45:53;2.83;;;1.95;;
71963;SDS011;59834;52.124;5.422;2023-06-19T05:48:22;3.43;;;1.97;;
71963;SDS011;59834;52.124;5.422;2023-06-19T05:50:48;4.18;;;2.42;;
71963;SDS011;59834;52.124;5.422;2023-06-19T05:53:15;4.50;;;2.60;;
71963;SDS011;59834;52.124;5.422;2023-06-19T05:55:42;4.70;;;2.67;;
71963;SDS011;59834;52.124;5.422;2023-06-19T05:58:09;4.40;;;2.75;;
71963;SDS011;59834;52.124;5.422;2023-06-19T06:00:35;3.90;;;3.50;;
71963;SDS011;59834;52.124;5.422;2023-06-19T06:03:02;5.97;;;3.83;;
71963;SDS011;59834;52.124;5.422;2023-06-19T06:05:29;8.25;;;4.45;;
71963;SDS011;59834;52.124;5.422;2023-06-19T06:07:55;7.18;;;3.97;;
71963;SDS011;59834;52.124;5.422;2023-06-19T06:10:23;4.57;;;3.83;;
71963;SDS011;59834;52.124;5.422;2023-06-19T06:12:51;5.47;;;3.77;;
71963;SDS011;59834;52.124;5.422;2023-06-19T06:15:18;5.10;;;3.53;;
71963;SDS011;59834;52.124;5.422;2023-06-19T06:17:45;5.38;;;3.70;;
71963;SDS011;59834;52.124;5.422;2023-06-19T06:20:11;8.85;;;3.78;;
71963;SDS011;59834;52.124;5.422;2023-06-19T06:22:39;5.25;;;3.50;;
71963;SDS011;59834;52.124;5.422;2023-06-19T06:25:06;6.03;;;3.90;;
71963;SDS011;59834;52.124;5.422;2023-06-19T06:27:36;7.80;;;3.75;;
71963;SDS011;59834;52.124;5.422;2023-06-19T06:30:03;6.70;;;3.95;;
71963;SDS011;59834;52.124;5.422;2023-06-19T06:32:30;8.40;;;2.90;;
71963;SDS011;59834;52.124;5.422;2023-06-19T06:34:57;5.22;;;2.80;;
71963;SDS011;59834;52.124;5.422;2023-06-19T06:37:25;5.93;;;3.87;;
71963;SDS011;59834;52.124;5.422;2023-06-19T06:39:51;4.20;;;2.47;;
71963;SDS011;59834;52.124;5.422;2023-06-19T06:42:18;7.65;;;2.30;;
71963;SDS011;59834;52.124;5.422;2023-06-19T06:44:45;9.75;;;4.22;;
71963;SDS011;59834;52.124;5.422;2023-06-19T06:47:12;6.78;;;4.25;;
71963;SDS011;59834;52.124;5.422;2023-06-19T06:49:38;5.13;;;3.40;;
71963;SDS011;59834;52.124;5.422;2023-06-19T06:52:05;5.95;;;3.20;;
71963;SDS011;59834;52.124;5.422;2023-06-19T06:54:32;4.13;;;3.25;;
71963;SDS011;59834;52.124;5.422;2023-06-19T06:56:58;4.57;;;3.50;;
71963;SDS011;59834;52.124;5.422;2023-06-19T06:59:26;5.40;;;4.90;;
71963;SDS011;59834;52.124;5.422;2023-06-19T07:01:56;7.10;;;5.70;;
71963;SDS011;59834;52.124;5.422;2023-06-19T07:04:23;6.82;;;4.90;;
71963;SDS011;59834;52.124;5.422;2023-06-19T07:06:49;7.20;;;5.55;;
71963;SDS011;59834;52.124;5.422;2023-06-19T07:09:17;7.85;;;6.00;;
71963;SDS011;59834;52.124;5.422;2023-06-19T07:11:44;8.10;;;5.40;;
71963;SDS011;59834;52.124;5.422;2023-06-19T07:14:10;8.03;;;6.33;;
71963;SDS011;59834;52.124;5.422;2023-06-19T07:16:37;8.10;;;4.70;;
71963;SDS011;59834;52.124;5.422;2023-06-19T07:19:04;13.18;;;5.82;;
71963;SDS011;59834;52.124;5.422;2023-06-19T07:21:31;11.38;;;6.25;;
71963;SDS011;59834;52.124;5.422;2023-06-19T07:23:57;8.43;;;4.88;;
71963;SDS011;59834;52.124;5.422;2023-06-19T07:26:25;7.20;;;5.87;;
71963;SDS011;59834;52.124;5.422;2023-06-19T07:28:52;11.73;;;5.47;;
71963;SDS011;59834;52.124;5.422;2023-06-19T07:31:19;7.65;;;5.30;;
71963;SDS011;59834;52.124;5.422;2023-06-19T07:33:47;7.82;;;5.75;;
71963;SDS011;59834;52.124;5.422;2023-06-19T07:36:14;11.25;;;6.88;;
71963;SDS011;59834;52.124;5.422;2023-06-19T07:38:42;10.07;;;7.27;;
71963;SDS011;59834;52.124;5.422;2023-06-19T07:41:12;10.00;;;6.63;;
71963;SDS011;59834;52.124;5.422;2023-06-19T07:43:42;8.18;;;6.20;;
71963;SDS011;59834;52.124;5.422;2023-06-19T07:46:09;9.07;;;6.28;;
71963;SDS011;59834;52.124;5.422;2023-06-19T07:48:36;7.35;;;6.32;;
71963;SDS011;59834;52.124;5.422;2023-06-19T07:51:02;10.93;;;8.37;;
71963;SDS011;59834;52.124;5.422;2023-06-19T07:53:29;8.10;;;7.35;;
71963;SDS011;59834;52.124;5.422;2023-06-19T07:55:55;15.13;;;7.85;;
71963;SDS011;59834;52.124;5.422;2023-06-19T07:58:22;10.02;;;7.60;;
71963;SDS011;59834;52.124;5.422;2023-06-19T08:00:48;9.82;;;8.82;;
71963;SDS011;59834;52.124;5.422;2023-06-19T08:03:15;9.53;;;8.57;;
71963;SDS011;59834;52.124;5.422;2023-06-19T08:05:41;13.73;;;9.23;;
71963;SDS011;59834;52.124;5.422;2023-06-19T08:08:08;11.25;;;7.72;;
71963;SDS011;59834;52.124;5.422;2023-06-19T08:10:34;12.18;;;9.05;;
71963;SDS011;59834;52.124;5.422;2023-06-19T08:13:01;11.15;;;8.63;;
71963;SDS011;59834;52.124;5.422;2023-06-19T08:15:27;9.60;;;8.40;;
71963;SDS011;59834;52.124;5.422;2023-06-19T08:17:54;11.30;;;8.95;;
71963;SDS011;59834;52.124;5.422;2023-06-19T08:20:20;10.00;;;9.00;;
71963;SDS011;59834;52.124;5.422;2023-06-19T08:22:48;11.15;;;8.88;;
71963;SDS011;59834;52.124;5.422;2023-06-19T08:25:14;13.25;;;9.57;;
71963;SDS011;59834;52.124;5.422;2023-06-19T08:27:41;9.70;;;8.60;;
71963;SDS011;59834;52.124;5.422;2023-06-19T08:30:08;13.63;;;8.82;;
71963;SDS011;59834;52.124;5.422;2023-06-19T08:32:34;11.82;;;8.57;;
71963;SDS011;59834;52.124;5.422;2023-06-19T08:35:01;9.77;;;8.75;;
71963;SDS011;59834;52.124;5.422;2023-06-19T08:37:29;11.10;;;8.77;;
71963;SDS011;59834;52.124;5.422;2023-06-19T08:39:55;13.37;;;9.03;;
71963;SDS011;59834;52.124;5.422;2023-06-19T08:42:22;12.57;;;8.68;;
71963;SDS011;59834;52.124;5.422;2023-06-19T08:44:49;10.27;;;9.18;;
71963;SDS011;59834;52.124;5.422;2023-06-19T08:47:15;13.15;;;7.68;;
71963;SDS011;59834;52.124;5.422;2023-06-19T08:49:42;10.73;;;8.85;;
71963;SDS011;59834;52.124;5.422;2023-06-19T08:52:09;10.10;;;8.20;;
71963;SDS011;59834;52.124;5.422;2023-06-19T08:54:36;12.18;;;9.07;;
71963;SDS011;59834;52.124;5.422;2023-06-19T08:57:11;11.88;;;9.02;;
71963;SDS011;59834;52.124;5.422;2023-06-19T08:59:38;10.95;;;9.20;;
71963;SDS011;59834;52.124;5.422;2023-06-19T09:02:05;11.13;;;8.55;;
71963;SDS011;59834;52.124;5.422;2023-06-19T09:04:32;10.07;;;9.07;;
71963;SDS011;59834;52.124;5.422;2023-06-19T09:07:03;13.77;;;9.27;;
71963;SDS011;59834;52.124;5.422;2023-06-19T09:09:30;15.73;;;8.90;;
71963;SDS011;59834;52.124;5.422;2023-06-19T09:12:03;15.57;;;10.18;;
71963;SDS011;59834;52.124;5.422;2023-06-19T09:14:38;11.30;;;9.98;;
71963;SDS011;59834;52.124;5.422;2023-06-19T09:17:07;12.87;;;10.20;;
71963;SDS011;59834;52.124;5.422;2023-06-19T09:19:37;15.20;;;11.60;;
71963;SDS011;59834;52.124;5.422;2023-06-19T09:22:09;17.38;;;11.15;;
71963;SDS011;59834;52.124;5.422;2023-06-19T09:24:36;13.25;;;11.85;;
71963;SDS011;59834;52.124;5.422;2023-06-19T09:27:07;14.52;;;11.75;;
71963;SDS011;59834;52.124;5.422;2023-06-19T09:29:38;17.40;;;12.30;;
71963;SDS011;59834;52.124;5.422;2023-06-19T09:32:21;19.50;;;10.80;;
71963;SDS011;59834;52.124;5.422;2023-06-19T09:34:52;15.65;;;10.02;;
71963;SDS011;59834;52.124;5.422;2023-06-19T09:37:30;16.02;;;10.05;;
71963;SDS011;59834;52.124;5.422;2023-06-19T09:42:29;13.33;;;10.50;;
71963;SDS011;59834;52.124;5.422;2023-06-19T09:45:00;15.88;;;11.07;;
71963;SDS011;59834;52.124;5.422;2023-06-19T09:47:32;14.50;;;10.80;;
71963;SDS011;59834;52.124;5.422;2023-06-19T09:50:02;13.15;;;10.10;;
71963;SDS011;59834;52.124;5.422;2023-06-19T09:52:30;11.85;;;10.60;;
71963;SDS011;59834;52.124;5.422;2023-06-19T09:54:57;12.77;;;11.50;;
71963;SDS011;59834;52.124;5.422;2023-06-19T09:57:26;15.68;;;10.82;;
71963;SDS011;59834;52.124;5.422;2023-06-19T09:59:54;14.57;;;10.73;;
71963;SDS011;59834;52.124;5.422;2023-06-19T10:02:26;11.70;;;10.05;;
71963;SDS011;59834;52.124;5.422;2023-06-19T10:04:54;12.63;;;9.90;;
71963;SDS011;59834;52.124;5.422;2023-06-19T10:07:23;9.87;;;8.87;;
71963;SDS011;59834;52.124;5.422;2023-06-19T10:09:56;9.18;;;8.20;;
71963;SDS011;59834;52.124;5.422;2023-06-19T10:12:52;12.40;;;9.85;;
71963;SDS011;59834;52.124;5.422;2023-06-19T10:17:53;12.70;;;9.35;;
71963;SDS011;59834;52.124;5.422;2023-06-19T10:20:27;14.27;;;9.27;;
71963;SDS011;59834;52.124;5.422;2023-06-19T10:23:09;10.35;;;9.23;;
71963;SDS011;59834;52.124;5.422;2023-06-19T10:25:47;10.73;;;9.10;;
71963;SDS011;59834;52.124;5.422;2023-06-19T10:28:16;10.68;;;9.00;;
71963;SDS011;59834;52.124;5.422;2023-06-19T10:30:43;10.15;;;8.00;;
71963;SDS011;59834;52.124;5.422;2023-06-19T10:33:09;15.73;;;9.47;;
71963;SDS011;59834;52.124;5.422;2023-06-19T10:35:40;12.70;;;9.63;;
71963;SDS011;59834;52.124;5.422;2023-06-19T10:38:07;10.50;;;9.27;;
71963;SDS011;59834;52.124;5.422;2023-06-19T10:40:36;12.25;;;9.25;;
71963;SDS011;59834;52.124;5.422;2023-06-19T10:43:03;13.20;;;8.88;;
71963;SDS011;59834;52.124;5.422;2023-06-19T10:45:30;10.50;;;9.20;;
71963;SDS011;59834;52.124;5.422;2023-06-19T10:47:57;15.48;;;10.13;;
71963;SDS011;59834;52.124;5.422;2023-06-19T10:50:28;11.45;;;10.02;;
71963;SDS011;59834;52.124;5.422;2023-06-19T10:52:59;14.77;;;8.88;;
71963;SDS011;59834;52.124;5.422;2023-06-19T10:55:25;11.10;;;9.73;;
71963;SDS011;59834;52.124;5.422;2023-06-19T10:57:52;11.03;;;9.87;;
71963;SDS011;59834;52.124;5.422;2023-06-19T11:00:28;10.85;;;9.60;;
71963;SDS011;59834;52.124;5.422;2023-06-19T11:02:57;10.35;;;9.10;;
71963;SDS011;59834;52.124;5.422;2023-06-19T11:05:25;10.93;;;9.30;;
71963;SDS011;59834;52.124;5.422;2023-06-19T11:07:57;10.95;;;8.50;;
71963;SDS011;59834;52.124;5.422;2023-06-19T11:10:26;10.03;;;9.03;;
71963;SDS011;59834;52.124;5.422;2023-06-19T11:12:57;13.20;;;9.13;;
71963;SDS011;59834;52.124;5.422;2023-06-19T11:15:30;11.73;;;9.10;;
71963;SDS011;59834;52.124;5.422;2023-06-19T11:17:57;10.93;;;8.75;;
71963;SDS011;59834;52.124;5.422;2023-06-19T11:20:25;11.38;;;8.15;;
71963;SDS011;59834;52.124;5.422;2023-06-19T11:22:59;12.30;;;7.67;;
71963;SDS011;59834;52.124;5.422;2023-06-19T11:25:37;11.75;;;7.35;;
71963;SDS011;59834;52.124;5.422;2023-06-19T11:28:04;11.30;;;8.82;;
71963;SDS011;59834;52.124;5.422;2023-06-19T11:30:36;11.00;;;7.80;;
71963;SDS011;59834;52.124;5.422;2023-06-19T11:33:03;9.98;;;8.38;;
71963;SDS011;59834;52.124;5.422;2023-06-19T11:35:33;12.60;;;9.50;;
71963;SDS011;59834;52.124;5.422;2023-06-19T11:38:03;10.45;;;8.20;;
71963;SDS011;59834;52.124;5.422;2023-06-19T11:40:38;9.55;;;8.38;;
71963;SDS011;59834;52.124;5.422;2023-06-19T11:43:05;10.93;;;7.88;;
71963;SDS011;59834;52.124;5.422;2023-06-19T11:45:32;12.32;;;9.40;;
71963;SDS011;59834;52.124;5.422;2023-06-19T11:47:58;11.20;;;8.67;;
71963;SDS011;59834;52.124;5.422;2023-06-19T11:50:28;15.68;;;9.00;;
71963;SDS011;59834;52.124;5.422;2023-06-19T11:52:55;10.60;;;7.88;;
71963;SDS011;59834;52.124;5.422;2023-06-19T11:55:23;9.80;;;6.90;;
71963;SDS011;59834;52.124;5.422;2023-06-19T11:57:49;8.25;;;7.43;;
71963;SDS011;59834;52.124;5.422;2023-06-19T12:00:16;8.60;;;7.70;;
71963;SDS011;59834;52.124;5.422;2023-06-19T12:02:43;12.98;;;9.30;;
71963;SDS011;59834;52.124;5.422;2023-06-19T12:05:11;7.53;;;6.82;;
71963;SDS011;59834;52.124;5.422;2023-06-19T12:07:38;8.13;;;6.25;;
71963;SDS011;59834;52.124;5.422;2023-06-19T12:10:05;9.13;;;7.68;;
71963;SDS011;59834;52.124;5.422;2023-06-19T12:12:36;8.03;;;7.23;;
71963;SDS011;59834;52.124;5.422;2023-06-19T12:15:04;9.70;;;8.18;;
71963;SDS011;59834;52.124;5.422;2023-06-19T12:17:31;11.70;;;8.07;;
71963;SDS011;59834;52.124;5.422;2023-06-19T12:19:59;8.45;;;7.57;;
71963;SDS011;59834;52.124;5.422;2023-06-19T12:22:26;10.05;;;8.32;;
71963;SDS011;59834;52.124;5.422;2023-06-19T12:24:53;9.33;;;8.20;;
71963;SDS011;59834;52.124;5.422;2023-06-19T12:27:20;11.73;;;8.57;;
71963;SDS011;59834;52.124;5.422;2023-06-19T12:29:46;10.38;;;7.35;;
71963;SDS011;59834;52.124;5.422;2023-06-19T12:32:13;8.55;;;6.97;;
71963;SDS011;59834;52.124;5.422;2023-06-19T12:34:39;11.10;;;7.30;;
71963;SDS011;59834;52.124;5.422;2023-06-19T12:37:06;9.03;;;7.40;;
71963;SDS011;59834;52.124;5.422;2023-06-19T12:39:33;11.45;;;8.15;;
71963;SDS011;59834;52.124;5.422;2023-06-19T12:42:00;7.72;;;6.75;;
71963;SDS011;59834;52.124;5.422;2023-06-19T12:44:27;9.23;;;6.95;;
71963;SDS011;59834;52.124;5.422;2023-06-19T12:46:53;6.97;;;6.35;;
71963;SDS011;59834;52.124;5.422;2023-06-19T12:49:20;11.43;;;7.13;;
71963;SDS011;59834;52.124;5.422;2023-06-19T12:51:47;12.48;;;6.43;;
71963;SDS011;59834;52.124;5.422;2023-06-19T12:54:17;7.75;;;5.80;;
71963;SDS011;59834;52.124;5.422;2023-06-19T12:56:44;7.70;;;6.10;;
71963;SDS011;59834;52.124;5.422;2023-06-19T12:59:11;7.07;;;6.38;;
71963;SDS011;59834;52.124;5.422;2023-06-19T13:01:38;8.27;;;6.80;;
71963;SDS011;59834;52.124;5.422;2023-06-19T13:04:04;6.80;;;6.03;;
71963;SDS011;59834;52.124;5.422;2023-06-19T13:06:31;6.88;;;6.18;;
71963;SDS011;59834;52.124;5.422;2023-06-19T13:08:58;6.85;;;5.97;;
71963;SDS011;59834;52.124;5.422;2023-06-19T13:11:24;12.02;;;7.18;;
71963;SDS011;59834;52.124;5.422;2023-06-19T13:13:51;8.50;;;6.53;;
71963;SDS011;59834;52.124;5.422;2023-06-19T13:16:18;6.70;;;5.70;;
71963;SDS011;59834;52.124;5.422;2023-06-19T13:18:55;9.00;;;6.47;;
71963;SDS011;59834;52.124;5.422;2023-06-19T13:21:22;7.55;;;5.60;;
71963;SDS011;59834;52.124;5.422;2023-06-19T13:23:48;9.02;;;5.95;;
71963;SDS011;59834;52.124;5.422;2023-06-19T13:26:15;6.63;;;5.87;;
71963;SDS011;59834;52.124;5.422;2023-06-19T13:28:42;10.52;;;6.57;;
71963;SDS011;59834;52.124;5.422;2023-06-19T13:31:09;8.05;;;5.90;;
71963;SDS011;59834;52.124;5.422;2023-06-19T13:33:35;6.60;;;5.38;;
71963;SDS011;59834;52.124;5.422;2023-06-19T13:36:02;7.25;;;5.90;;
71963;SDS011;59834;52.124;5.422;2023-06-19T13:38:28;15.50;;;6.37;;
71963;SDS011;59834;52.124;5.422;2023-06-19T13:40:55;7.40;;;5.47;;
71963;SDS011;59834;52.124;5.422;2023-06-19T13:43:22;5.93;;;5.40;;
71963;SDS011;59834;52.124;5.422;2023-06-19T13:45:49;8.93;;;6.22;;
71963;SDS011;59834;52.124;5.422;2023-06-19T13:48:16;6.72;;;5.57;;
71963;SDS011;59834;52.124;5.422;2023-06-19T13:50:43;7.03;;;5.37;;
71963;SDS011;59834;52.124;5.422;2023-06-19T13:53:09;6.85;;;5.25;;
71963;SDS011;59834;52.124;5.422;2023-06-19T13:55:36;5.28;;;4.78;;
71963;SDS011;59834;52.124;5.422;2023-06-19T13:58:02;5.70;;;5.18;;
71963;SDS011;59834;52.124;5.422;2023-06-19T14:00:29;8.70;;;5.20;;
71963;SDS011;59834;52.124;5.422;2023-06-19T14:02:55;8.93;;;5.10;;
71963;SDS011;59834;52.124;5.422;2023-06-19T14:05:22;8.10;;;5.63;;
71963;SDS011;59834;52.124;5.422;2023-06-19T14:07:49;6.53;;;5.60;;
71963;SDS011;59834;52.124;5.422;2023-06-19T14:10:15;9.07;;;4.88;;
71963;SDS011;59834;52.124;5.422;2023-06-19T14:12:42;8.90;;;6.22;;
71963;SDS011;59834;52.124;5.422;2023-06-19T14:15:09;6.83;;;5.07;;
71963;SDS011;59834;52.124;5.422;2023-06-19T14:17:35;7.30;;;4.97;;
71963;SDS011;59834;52.124;5.422;2023-06-19T14:20:02;5.88;;;4.50;;
71963;SDS011;59834;52.124;5.422;2023-06-19T14:22:30;6.00;;;4.53;;
71963;SDS011;59834;52.124;5.422;2023-06-19T14:24:57;6.63;;;5.10;;
71963;SDS011;59834;52.124;5.422;2023-06-19T14:27:26;4.97;;;4.50;;
71963;SDS011;59834;52.124;5.422;2023-06-19T14:29:53;5.85;;;5.38;;
71963;SDS011;59834;52.124;5.422;2023-06-19T14:32:21;6.25;;;5.20;;
71963;SDS011;59834;52.124;5.422;2023-06-19T14:34:49;5.53;;;4.43;;
71963;SDS011;59834;52.124;5.422;2023-06-19T14:37:16;8.88;;;4.43;;
71963;SDS011;59834;52.124;5.422;2023-06-19T14:39:43;6.93;;;4.60;;
71963;SDS011;59834;52.124;5.422;2023-06-19T14:42:09;4.40;;;3.97;;
71963;SDS011;59834;52.124;5.422;2023-06-19T14:44:37;7.05;;;3.92;;
71963;SDS011;59834;52.124;5.422;2023-06-19T14:47:04;8.27;;;4.00;;
71963;SDS011;59834;52.124;5.422;2023-06-19T14:49:31;5.97;;;4.38;;
71963;SDS011;59834;52.124;5.422;2023-06-19T14:51:57;5.13;;;4.13;;
71963;SDS011;59834;52.124;5.422;2023-06-19T14:54:24;6.15;;;5.03;;